Le Raizet Airport, Guadeloupe

9:51 AM AST on September 18, 2014 (GMT -0400)
Le Raizet | Change Station
CLOSE
Current Station
Airport
Location: Le Raizet Airport,
Elevation: 26 ft
Nearby Weather Stations

Elev 26 ft 16.27 °N, 61.53 °W | Updated 21 minutes ago

Scattered Clouds
Scattered Clouds
84 °F
Feels Like 94 °F
N
12
Wind Variable Wind from ESE

Today
High -- | Low -- °F
--% Chance of Precip.
Yesterday
High -- | Low -- °F
Precip. -- in
5:54 AM 6:05 PM
Waning Crescent, 27% visible
Pressure 29.98 in
Visibility 6.2 miles
Clouds Mostly Cloudy 1800 ft
Scattered Clouds 23000 ft
Heat Index 94 °F
Dew Point 77 °F
Humidity 79%
Rainfall 0.00 in
Snow Depth Not available.
UV 9 out of 12
Pollen Not available.
Air Quality Not available.
Flu Activity Not available.
METAR TFFR 181330Z 11010KT 9999 BKN018 SCT230 29/25 Q1015 TEMPO 3000 SHRA

More Conditions Fewer Conditions

Pressure 29.98 in
Visibility 6.2 miles
Clouds Mostly Cloudy 1800 ft
Scattered Clouds 23000 ft
Heat Index 94 °F
Dew Point 77 °F
Humidity 79%
Rainfall 0.00 in
Snow Depth Not available.
UV 9 out of 12
Pollen Not available.
Air Quality Not available.
Flu Activity Not available.
METAR TFFR 181330Z 11010KT 9999 BKN018 SCT230 29/25 Q1015 TEMPO 3000 SHRA

More Conditions Fewer Conditions

10-Day Weather Forecast

Almanac

Astronomy

Sep. 18, 2014 Rise Set
Actual Time 5:54 AM AST 6:05 PM AST
Civil Twilight 5:33 AM AST 6:27 PM AST
Nautical Twilight 5:08 AM AST 6:52 PM AST
Astronomical Twilight 4:42 AM AST 7:17 PM AST
Moon 1:17 AM AST 2:20 PM AST
Length of Visible Light 12h 53m
Length of Day
12h 10m
Tomorrow will be 0m 55s shorter.
Waning Crescent, 27% of the Moon is Illuminated
Today
Waning Crescent
Sep 24
New
Oct 1
First Quarter
Oct 8
Full
Oct 15
Last Quarter

Yesterday's Extremes

Country Highs Country Lows

Community

WunderPhotos

Upload Photos

1,754,347 photos uploaded!

Nearby

Snow Depth

Not available.

Earthquake Activity

City Distance Mag. Time & Date
No recent earthquake activity has been reported nearby.
Minimum magnitude displayed is 2.5.

Coastal Water Temperatures

Place Temperature
No Stations Reporting

Nearby Weather Stations